PWSweather.com
Personal Weather Stations
Station Observations
WISCHPK61
Green Bay Schmitt Park, Green Bay, WI 54311

Green Bay Schmitt ParkGreen Bay, WI 54311

Lat: 44.514277, Lon: -87.935067

Elevation: 735

Station Type: Acu Rite Pro Weather Center model 02032C

http://greenbayweathercam.com

High Low Average
Temperature 71.0°F21.7°C 64.9°F18.3°C 67.1°F19.5°C
Dew Point 70.8°F21.6°C 64.6°F18.1°C 66.8°F19.3°C
Winds 2.3 mph 3.7 kmh Calm Calm Calm SCalm S
Wind Gusts 5.8 mph9.3 kmh -- 1.0 mph1.6 kmh
Humidity 99% 99% 99%
Pressure 29.28 in991.5 mb 29.14 in986.8 mb -
Precipitation 0.00 in0.0 mm - -
Hour Temp Dew Point Humidity Winds Wind Gusts Pressure Precip Precip Rate Daily Precip Total
12:00 AM 65.3°F18.5°C 65.0°F18.3°C 99% Calm Calm -- 29.28 in991.5 mb - 0.00 in0.0 mm 0.00 in0.0 mm
01:00 AM 64.9°F18.3°C 64.6°F18.1°C 99% Calm Calm -- 29.26 in990.9 mb - 0.00 in0.0 mm 0.00 in0.0 mm
02:00 AM 65.7°F18.7°C 65.4°F18.6°C 99% Calm Calm -- 29.24 in990.2 mb - 0.00 in0.0 mm 0.00 in0.0 mm
03:00 AM 66.0°F18.9°C 65.7°F18.7°C 99% Calm Calm -- 29.23 in989.8 mb - 0.00 in0.0 mm 0.00 in0.0 mm
04:00 AM 65.7°F18.7°C 65.4°F18.6°C 99% Calm Calm -- 29.23 in989.8 mb - 0.00 in0.0 mm 0.00 in0.0 mm
05:00 AM 65.8°F18.8°C 65.5°F18.6°C 99% Calm Calm -- 29.23 in989.8 mb - 0.00 in0.0 mm 0.00 in0.0 mm
06:00 AM 66.5°F19.2°C 66.2°F19.0°C 99% Calm Calm 1.2 mph1.9 kmh 29.24 in990.2 mb - 0.00 in0.0 mm 0.00 in0.0 mm
07:00 AM 67.1°F19.5°C 66.8°F19.3°C 99% Calm Calm 1.2 mph1.9 kmh 29.25 in990.5 mb - 0.00 in0.0 mm 0.00 in0.0 mm
08:00 AM 67.3°F19.6°C 67.0°F19.4°C 99% Calm Calm -- 29.25 in990.5 mb - 0.00 in0.0 mm 0.00 in0.0 mm
09:00 AM 69.4°F20.8°C 69.1°F20.6°C 99% 2.3 mph SE3.7 kmh SE 2.3 mph3.7 kmh 29.23 in989.8 mb - 0.00 in0.0 mm 0.00 in0.0 mm
10:00 AM 69.0°F20.6°C 68.7°F20.4°C 99% Calm Calm -- 29.22 in989.5 mb - 0.00 in0.0 mm 0.00 in0.0 mm
11:00 AM 68.7°F20.4°C 68.4°F20.2°C 99% Calm Calm -- 29.21 in989.2 mb - 0.00 in0.0 mm 0.00 in0.0 mm
12:00 PM 70.2°F21.2°C 69.9°F21.1°C 99% Calm Calm -- 29.20 in988.8 mb - 0.00 in0.0 mm 0.00 in0.0 mm
01:00 PM 67.6°F19.8°C 67.3°F19.6°C 99% 1.2 mph SSW1.9 kmh SSW 5.8 mph9.3 kmh 29.20 in988.8 mb - 0.00 in0.0 mm 0.00 in0.0 mm
02:00 PM 71.0°F21.7°C 70.8°F21.6°C 99% Calm Calm -- 29.17 in987.8 mb - 0.00 in0.0 mm 0.00 in0.0 mm
03:00 PM 69.6°F20.9°C 69.3°F20.7°C 99% 1.2 mph S1.9 kmh S 1.2 mph1.9 kmh 29.17 in987.8 mb - 0.00 in0.0 mm 0.00 in0.0 mm
04:00 PM 67.5°F19.7°C 67.3°F19.6°C 99% Calm Calm 1.2 mph1.9 kmh 29.15 in987.1 mb - 0.00 in0.0 mm 0.00 in0.0 mm
05:00 PM 68.0°F20.0°C 67.7°F19.8°C 99% 1.2 mph SW1.9 kmh SW 1.2 mph1.9 kmh 29.15 in987.1 mb - 0.00 in0.0 mm 0.00 in0.0 mm
06:00 PM 66.8°F19.3°C 66.5°F19.2°C 99% 2.3 mph SE3.7 kmh SE 3.5 mph5.6 kmh 29.16 in987.5 mb - 0.00 in0.0 mm 0.00 in0.0 mm
07:00 PM 65.5°F18.6°C 65.2°F18.4°C 99% 1.2 mph S1.9 kmh S 1.2 mph1.9 kmh 29.15 in987.1 mb - 0.00 in0.0 mm 0.00 in0.0 mm
08:00 PM 65.1°F18.4°C 64.8°F18.2°C 99% Calm Calm -- 29.16 in987.5 mb - 0.00 in0.0 mm 0.00 in0.0 mm
09:00 PM 65.1°F18.4°C 64.8°F18.2°C 99% Calm Calm -- 29.16 in987.5 mb - 0.00 in0.0 mm 0.00 in0.0 mm
10:00 PM 65.8°F18.8°C 65.5°F18.6°C 99% Calm Calm -- 29.15 in987.1 mb - 0.00 in0.0 mm 0.00 in0.0 mm
11:00 PM 66.4°F19.1°C 66.1°F18.9°C 99% Calm Calm 1.2 mph1.9 kmh 29.14 in986.8 mb - 0.00 in0.0 mm 0.00 in0.0 mm